Time;durP1;ratioP1;P1;durP2;ratioP2;P2;SDS_P1;SDS_P2;PMS_P1;PMS_P2;Temp;Humidity;BMP_temperature;BMP_pressure;BME280_temperature;BME280_humidity;BME280_pressure;Samples;Min_cycle;Max_cycle;Signal;HPM_P1;HPM_P2
2022/06/24 00:02:22;;;;;;;10.25;6.35;;;22.30;66.20;;;;;;5028323;28;20513;-67
2022/06/24 00:04:56;;;;;;;10.77;6.53;;;22.30;66.20;;;;;;5019935;28;20035;-66
2022/06/24 00:07:22;;;;;;;10.43;6.65;;;22.30;66.20;;;;;;5010060;28;20110;-66
2022/06/24 00:09:47;;;;;;;8.98;6.22;;;22.20;66.20;;;;;;5027172;28;20156;-66
2022/06/24 00:12:15;;;;;;;12.73;6.38;;;22.30;66.30;;;;;;5008147;28;20601;-66
2022/06/24 00:14:45;;;;;;;11.45;6.22;;;22.20;66.20;;;;;;5009434;28;20040;-66
2022/06/24 00:17:11;;;;;;;10.13;6.28;;;22.20;66.20;;;;;;5027626;28;20025;-66
2022/06/24 00:20:03;;;;;;;12.20;6.78;;;22.20;66.20;;;;;;5023798;28;20120;-66
2022/06/24 00:22:30;;;;;;;11.30;6.30;;;22.20;66.20;;;;;;5026326;28;20040;-66
2022/06/24 00:25:11;;;;;;;11.18;6.45;;;22.20;66.20;;;;;;5027409;28;20056;-66
2022/06/24 00:27:37;;;;;;;10.18;5.90;;;22.20;66.20;;;;;;5027282;28;20441;-66
2022/06/24 00:30:13;;;;;;;10.15;6.07;;;22.20;66.20;;;;;;5025859;28;20033;-66
2022/06/24 00:32:39;;;;;;;9.27;5.95;;;22.20;66.20;;;;;;5025767;28;20509;-66
2022/06/24 00:35:14;;;;;;;9.63;6.13;;;22.20;66.20;;;;;;5027192;28;20034;-66
2022/06/24 00:37:41;;;;;;;10.60;6.25;;;22.20;66.20;;;;;;5026941;28;20018;-66
2022/06/24 00:40:09;;;;;;;9.48;5.95;;;22.20;66.20;;;;;;5026159;28;20037;-66
2022/06/24 00:42:45;;;;;;;10.52;6.40;;;22.20;66.30;;;;;;5027062;28;20501;-66
2022/06/24 00:45:38;;;;;;;9.00;5.45;;;22.20;66.30;;;;;;5026854;28;20056;-66
2022/06/24 00:48:08;;;;;;;10.88;6.43;;;22.20;66.30;;;;;;5026688;28;20026;-66
2022/06/24 00:50:34;;;;;;;9.57;5.90;;;22.20;66.20;;;;;;5025923;28;20021;-66
2022/06/24 00:53:00;;;;;;;10.38;6.05;;;22.10;66.20;;;;;;5006306;28;20047;-66
2022/06/24 00:55:31;;;;;;;9.52;6.18;;;22.10;66.20;;;;;;5026975;28;20022;-66
2022/06/24 00:57:57;;;;;;;9.07;5.80;;;22.10;66.20;;;;;;5026527;28;20026;-66
2022/06/24 01:00:27;;;;;;;10.35;6.15;;;22.10;66.30;;;;;;5027180;28;20036;-66
2022/06/24 01:03:19;;;;;;;10.55;6.45;;;22.10;66.20;;;;;;5027067;28;20045;-66
2022/06/24 01:05:45;;;;;;;10.23;5.90;;;22.10;66.20;;;;;;5021540;28;20051;-66
2022/06/24 01:08:12;;;;;;;9.88;6.18;;;22.10;66.30;;;;;;5026800;28;21021;-66
2022/06/24 01:10:38;;;;;;;8.85;6.05;;;22.10;66.20;;;;;;5026871;28;20061;-66
2022/06/24 01:13:08;;;;;;;8.70;5.65;;;22.10;66.20;;;;;;5026798;28;20065;-66
2022/06/24 01:15:33;;;;;;;9.05;5.85;;;22.10;66.20;;;;;;5010514;28;20514;-66
2022/06/24 01:17:59;;;;;;;10.10;6.05;;;22.10;66.20;;;;;;5025743;28;20033;-65
2022/06/24 01:20:25;;;;;;;10.30;6.43;;;22.10;66.20;;;;;;5025191;28;20413;-65
2022/06/24 01:22:50;;;;;;;9.77;6.00;;;22.10;66.30;;;;;;5026044;28;20486;-66
2022/06/24 01:25:16;;;;;;;9.48;5.88;;;22.10;66.20;;;;;;5026955;28;20435;-66
2022/06/24 01:27:41;;;;;;;8.98;5.90;;;22.10;66.20;;;;;;5026638;28;20037;-66
2022/06/24 01:30:09;;;;;;;8.80;5.72;;;22.10;66.20;;;;;;5027413;28;20018;-66
2022/06/24 01:32:35;;;;;;;10.00;5.93;;;22.10;66.20;;;;;;5026179;28;20064;-66
2022/06/24 01:35:01;;;;;;;8.77;5.80;;;22.00;66.10;;;;;;5026127;28;20021;-66
2022/06/24 01:37:27;;;;;;;9.52;5.95;;;22.00;66.10;;;;;;5024765;28;20030;-66
2022/06/24 01:39:52;;;;;;;8.77;5.75;;;22.00;66.20;;;;;;5025095;28;20389;-66
2022/06/24 01:42:18;;;;;;;9.02;6.00;;;22.00;66.20;;;;;;5026628;28;20482;-66
2022/06/24 01:44:43;;;;;;;9.50;5.95;;;22.00;66.20;;;;;;5028632;28;20540;-66
2022/06/24 01:47:09;;;;;;;8.55;5.82;;;22.00;66.10;;;;;;5027409;28;20021;-66
2022/06/24 01:49:35;;;;;;;10.70;6.25;;;22.00;66.20;;;;;;5026714;28;20508;-65
2022/06/24 01:52:01;;;;;;;10.70;6.00;;;22.00;66.20;;;;;;5027200;28;20026;-66
2022/06/24 01:54:27;;;;;;;8.85;5.72;;;22.00;66.10;;;;;;5028398;28;20060;-66
2022/06/24 01:56:53;;;;;;;8.63;5.43;;;22.00;66.10;;;;;;5031042;28;20032;-66
2022/06/24 01:59:19;;;;;;;9.38;5.95;;;22.00;66.10;;;;;;5029030;28;20108;-66
2022/06/24 02:01:44;;;;;;;8.50;5.57;;;22.00;66.10;;;;;;5027075;28;20922;-66
2022/06/24 02:04:10;;;;;;;8.50;5.53;;;22.00;66.10;;;;;;5026590;28;20037;-66
2022/06/24 02:06:36;;;;;;;8.82;5.60;;;22.00;66.10;;;;;;5031037;28;20155;-65
2022/06/24 02:09:01;;;;;;;9.73;5.57;;;21.90;66.00;;;;;;5029755;28;20029;-66
2022/06/24 02:14:11;;;;;;;9.23;5.85;;;21.90;66.10;;;;;;5032254;28;20048;-66
2022/06/24 02:16:38;;;;;;;9.00;5.55;;;21.90;66.00;;;;;;5009755;28;20021;-66
2022/06/24 02:19:03;;;;;;;9.27;5.55;;;21.90;66.00;;;;;;5026053;28;20044;-66
2022/06/24 02:21:29;;;;;;;8.50;5.40;;;21.90;66.00;;;;;;5028795;28;20512;-65
2022/06/24 02:23:55;;;;;;;8.95;5.40;;;21.90;66.00;;;;;;5029271;28;20030;-66
2022/06/24 02:26:20;;;;;;;9.05;5.25;;;21.90;66.00;;;;;;5025798;28;20037;-66
2022/06/24 02:28:46;;;;;;;8.98;5.60;;;21.90;66.00;;;;;;5027914;28;20029;-66
2022/06/24 02:31:12;;;;;;;9.63;5.45;;;21.90;66.00;;;;;;5025499;28;20104;-66
2022/06/24 02:33:37;;;;;;;10.02;5.28;;;21.90;66.00;;;;;;5028117;28;20061;-66
2022/06/24 02:36:03;;;;;;;9.18;5.72;;;21.90;66.00;;;;;;5029252;28;20025;-66
2022/06/24 02:38:29;;;;;;;8.40;5.15;;;21.90;66.00;;;;;;5034550;28;20045;-66
2022/06/24 02:40:55;;;;;;;8.48;5.47;;;21.90;66.00;;;;;;5030805;28;20021;-65
2022/06/24 02:43:22;;;;;;;8.05;5.13;;;21.90;66.00;;;;;;5030342;28;20033;-65
2022/06/24 02:45:51;;;;;;;9.25;5.50;;;21.90;66.00;;;;;;5047477;28;20048;-66
2022/06/24 02:48:18;;;;;;;8.48;5.40;;;21.90;66.00;;;;;;5048505;28;20047;-66
2022/06/24 02:50:45;;;;;;;9.35;5.50;;;21.90;66.00;;;;;;5049383;28;20110;-66
2022/06/24 02:53:11;;;;;;;8.05;5.38;;;21.80;65.90;;;;;;5048105;28;20037;-66
2022/06/24 02:55:36;;;;;;;9.02;5.30;;;21.80;66.00;;;;;;5049525;28;20033;-66
2022/06/24 02:58:03;;;;;;;9.43;5.40;;;21.80;65.90;;;;;;5048768;28;20489;-66
2022/06/24 03:00:29;;;;;;;8.65;5.10;;;21.80;65.90;;;;;;5063128;28;20026;-66
2022/06/24 03:02:54;;;;;;;8.48;5.15;;;21.80;65.90;;;;;;5048719;28;20032;-66
2022/06/24 03:05:20;;;;;;;8.57;5.10;;;21.80;65.90;;;;;;5048679;28;20037;-66
2022/06/24 03:07:46;;;;;;;8.82;5.03;;;21.80;65.90;;;;;;5047830;28;20119;-66
2022/06/24 03:10:11;;;;;;;8.02;5.00;;;21.80;65.90;;;;;;5048041;28;20025;-65
2022/06/24 03:12:37;;;;;;;7.90;4.90;;;21.80;65.90;;;;;;5050710;28;20033;-66
2022/06/24 03:15:03;;;;;;;9.38;5.00;;;21.80;66.00;;;;;;5047423;28;20493;-66
2022/06/24 03:17:29;;;;;;;8.57;5.13;;;21.80;65.90;;;;;;5047836;28;20078;-66
2022/06/24 03:19:54;;;;;;;8.10;5.35;;;21.80;66.00;;;;;;5048589;28;20393;-66
2022/06/24 03:22:20;;;;;;;8.50;5.05;;;21.80;65.90;;;;;;5048653;28;20513;-66
2022/06/24 03:24:46;;;;;;;8.02;5.20;;;21.80;66.00;;;;;;5049405;28;20083;-66
2022/06/24 03:27:12;;;;;;;7.50;5.03;;;21.80;65.90;;;;;;5049321;28;20025;-66
2022/06/24 03:29:37;;;;;;;7.70;5.00;;;21.80;65.90;;;;;;5048028;28;20510;-66
2022/06/24 03:32:03;;;;;;;8.18;5.20;;;21.80;65.90;;;;;;5047765;28;20528;-65
2022/06/24 03:34:29;;;;;;;8.25;5.00;;;21.80;65.90;;;;;;5047578;28;20029;-66
2022/06/24 03:36:54;;;;;;;9.32;5.32;;;21.80;65.90;;;;;;5047409;28;20021;-66
2022/06/24 03:39:20;;;;;;;8.25;5.28;;;21.80;65.90;;;;;;5049694;28;20029;-66
2022/06/24 03:41:46;;;;;;;8.75;5.30;;;21.80;65.90;;;;;;5047202;28;20039;-66
2022/06/24 03:44:11;;;;;;;7.40;4.90;;;21.70;65.80;;;;;;5042899;28;20057;-66
2022/06/24 03:46:37;;;;;;;7.70;5.03;;;21.80;65.90;;;;;;5027905;28;20032;-65
2022/06/24 03:49:02;;;;;;;7.70;5.00;;;21.70;65.80;;;;;;5029205;28;20030;-66
2022/06/24 03:51:28;;;;;;;7.43;4.63;;;21.70;65.80;;;;;;5034514;28;20037;-65
2022/06/24 03:53:54;;;;;;;8.68;5.10;;;21.70;65.80;;;;;;5031757;28;20033;-66
2022/06/24 03:56:20;;;;;;;8.88;5.03;;;21.70;65.80;;;;;;5027645;28;20036;-66
2022/06/24 03:58:45;;;;;;;8.15;5.20;;;21.70;65.80;;;;;;5027532;28;20029;-66
2022/06/24 04:01:11;;;;;;;7.90;4.82;;;21.70;65.80;;;;;;5028927;28;20100;-65
2022/06/24 04:03:36;;;;;;;7.55;4.68;;;21.70;65.80;;;;;;5031413;28;20113;-66
2022/06/24 04:06:02;;;;;;;8.25;4.80;;;21.70;65.80;;;;;;5032697;28;20025;-66
2022/06/24 04:08:28;;;;;;;8.05;4.90;;;21.70;65.80;;;;;;5032605;28;20404;-66
2022/06/24 04:10:53;;;;;;;8.15;4.65;;;21.70;65.80;;;;;;5031671;28;20025;-65
2022/06/24 04:13:19;;;;;;;7.05;4.43;;;21.70;65.80;;;;;;5027217;28;20096;-65
2022/06/24 04:15:49;;;;;;;8.15;5.05;;;21.70;65.80;;;;;;5027995;28;20061;-66
2022/06/24 04:18:15;;;;;;;8.40;5.25;;;21.70;65.80;;;;;;5032173;28;20029;-66
2022/06/24 04:20:41;;;;;;;7.32;4.70;;;21.70;65.80;;;;;;5029924;28;20025;-65
2022/06/24 04:23:07;;;;;;;9.25;5.22;;;21.70;65.80;;;;;;5027512;28;20033;-66
2022/06/24 04:25:33;;;;;;;8.30;4.60;;;21.70;65.90;;;;;;5027298;28;20720;-66
2022/06/24 04:27:59;;;;;;;9.10;4.95;;;21.70;65.80;;;;;;5027264;28;20120;-66
2022/06/24 04:30:25;;;;;;;8.93;4.90;;;21.70;65.80;;;;;;5029245;28;20125;-66
2022/06/24 04:32:51;;;;;;;8.43;4.85;;;21.70;65.90;;;;;;5029043;28;20529;-66
2022/06/24 04:35:16;;;;;;;7.63;4.80;;;21.60;65.90;;;;;;5028858;28;20026;-65
2022/06/24 04:37:42;;;;;;;8.82;4.90;;;21.70;65.80;;;;;;5030085;28;20025;-65
2022/06/24 04:40:11;;;;;;;6.90;4.35;;;21.70;65.80;;;;;;5026793;28;20075;-66
2022/06/24 04:42:37;;;;;;;7.07;4.60;;;21.60;65.80;;;;;;5026892;28;20029;-65
2022/06/24 04:45:03;;;;;;;7.10;4.45;;;21.70;65.80;;;;;;5027125;28;20103;-66
2022/06/24 04:47:29;;;;;;;8.07;4.63;;;21.60;65.80;;;;;;5028643;28;20441;-66
2022/06/24 04:49:55;;;;;;;7.03;4.60;;;21.60;65.80;;;;;;5028625;28;20029;-66
2022/06/24 04:52:21;;;;;;;8.05;4.45;;;21.60;65.80;;;;;;5027942;28;20029;-66
2022/06/24 04:54:47;;;;;;;7.07;4.70;;;21.60;65.80;;;;;;5026622;28;20040;-66
2022/06/24 04:57:13;;;;;;;7.35;4.90;;;21.60;65.80;;;;;;5028008;28;20040;-66
2022/06/24 04:59:39;;;;;;;7.70;4.72;;;21.60;65.80;;;;;;5027249;28;20037;-66
2022/06/24 05:02:05;;;;;;;8.15;4.47;;;21.60;65.80;;;;;;5028713;28;20025;-66
2022/06/24 05:04:30;;;;;;;7.70;4.82;;;21.60;65.80;;;;;;5027374;28;20082;-65
2022/06/24 05:06:56;;;;;;;7.45;4.75;;;21.60;65.80;;;;;;5024372;28;20048;-65
2022/06/24 05:09:21;;;;;;;8.77;4.65;;;21.60;65.70;;;;;;5030369;28;20128;-66
2022/06/24 05:11:50;;;;;;;7.70;4.70;;;21.60;65.80;;;;;;5026949;28;20021;-66
2022/06/24 05:14:16;;;;;;;7.25;4.65;;;21.60;65.80;;;;;;5007999;28;20060;-66
2022/06/24 05:16:42;;;;;;;9.80;4.47;;;21.60;65.80;;;;;;5027284;28;20033;-65
2022/06/24 05:19:08;;;;;;;7.03;4.68;;;21.60;65.80;;;;;;5025934;28;20037;-65
2022/06/24 05:21:34;;;;;;;6.90;4.40;;;21.60;65.80;;;;;;5030044;28;20025;-66
2022/06/24 05:24:00;;;;;;;7.85;4.57;;;21.60;65.80;;;;;;5029725;28;20026;-66
2022/06/24 05:26:25;;;;;;;7.55;4.88;;;21.50;65.70;;;;;;5033070;28;20056;-66
2022/06/24 05:28:51;;;;;;;7.60;4.80;;;21.60;65.80;;;;;;5028811;28;20033;-65
2022/06/24 05:31:17;;;;;;;6.72;4.43;;;21.50;65.80;;;;;;5028558;28;20118;-65
2022/06/24 05:33:42;;;;;;;8.20;4.55;;;21.50;65.70;;;;;;5028675;28;20041;-65
2022/06/24 05:36:08;;;;;;;6.97;4.40;;;21.50;65.80;;;;;;5030298;28;20477;-65
2022/06/24 05:38:34;;;;;;;7.38;4.50;;;21.50;65.80;;;;;;5029209;28;20509;-66
2022/06/24 05:40:59;;;;;;;8.43;4.88;;;21.60;65.80;;;;;;5029747;28;20045;-66
2022/06/24 05:43:25;;;;;;;7.80;4.82;;;21.50;65.70;;;;;;5010399;28;20038;-66
2022/06/24 05:45:51;;;;;;;7.50;4.45;;;21.50;65.80;;;;;;5047303;28;20041;-65
2022/06/24 05:48:16;;;;;;;7.93;4.68;;;21.50;65.80;;;;;;5046768;28;20128;-66
2022/06/24 05:50:42;;;;;;;7.40;4.70;;;21.50;65.70;;;;;;5046343;28;20036;-66
2022/06/24 05:55:56;;;;;;;7.45;4.70;;;21.50;65.80;;;;;;5044647;28;20264;-65
2022/06/24 05:58:21;;;;;;;7.60;4.75;;;21.50;65.80;;;;;;5042778;28;20022;-66
2022/06/24 06:00:47;;;;;;;7.68;4.57;;;21.50;65.80;;;;;;5044908;28;20023;-65
2022/06/24 06:03:12;;;;;;;7.78;4.50;;;21.50;65.80;;;;;;5045661;28;20462;-66
2022/06/24 06:05:38;;;;;;;7.50;4.25;;;21.50;65.80;;;;;;5044636;28;20067;-66
2022/06/24 06:08:04;;;;;;;7.22;4.80;;;21.50;65.80;;;;;;5045408;28;20469;-66
2022/06/24 06:10:29;;;;;;;7.53;4.68;;;21.50;65.80;;;;;;5044712;28;20043;-65
2022/06/24 06:12:55;;;;;;;7.97;4.93;;;21.50;65.80;;;;;;5043191;28;20050;-65
2022/06/24 06:15:21;;;;;;;8.23;4.97;;;21.50;65.80;;;;;;5047409;28;20057;-65
2022/06/24 06:17:46;;;;;;;7.10;4.32;;;21.40;65.70;;;;;;5042453;28;20105;-66
2022/06/24 06:20:12;;;;;;;7.60;4.97;;;21.50;65.80;;;;;;5044493;28;20083;-66
2022/06/24 06:22:38;;;;;;;8.52;4.75;;;21.40;65.70;;;;;;5044983;28;20029;-66
2022/06/24 06:25:04;;;;;;;7.35;4.35;;;21.40;65.70;;;;;;5045774;28;20025;-65
2022/06/24 06:27:29;;;;;;;6.65;4.22;;;21.40;65.70;;;;;;5046108;28;20021;-66
2022/06/24 06:29:55;;;;;;;7.47;4.47;;;21.40;65.70;;;;;;5045758;28;20537;-66
2022/06/24 06:32:21;;;;;;;6.95;4.57;;;21.40;65.70;;;;;;5045309;28;20515;-66
2022/06/24 06:34:48;;;;;;;6.85;4.50;;;21.40;65.70;;;;;;5043217;28;20037;-66
2022/06/24 06:37:13;;;;;;;8.63;4.80;;;21.40;65.70;;;;;;5042284;28;20393;-64
2022/06/24 06:39:39;;;;;;;7.82;4.60;;;21.40;65.80;;;;;;5046125;28;20029;-64
2022/06/24 06:42:05;;;;;;;9.85;4.50;;;21.40;65.80;;;;;;5042578;28;20025;-64
2022/06/24 06:44:30;;;;;;;7.32;4.47;;;21.50;65.90;;;;;;5043112;28;20033;-64
2022/06/24 06:46:56;;;;;;;9.15;4.60;;;21.50;65.80;;;;;;5044464;28;20078;-65
2022/06/24 06:49:21;;;;;;;15.23;9.77;;;21.50;65.90;;;;;;5041734;28;20116;-65
2022/06/24 06:51:47;;;;;;;13.48;8.43;;;21.40;65.70;;;;;;5042439;28;20158;-65
2022/06/24 06:54:13;;;;;;;14.10;9.25;;;21.40;66.00;;;;;;5039659;28;20107;-64
2022/06/24 06:56:39;;;;;;;13.95;6.93;;;21.40;65.60;;;;;;5045733;28;20504;-64
2022/06/24 06:59:05;;;;;;;11.38;6.40;;;21.40;65.80;;;;;;5044344;28;20124;-64
2022/06/24 07:01:30;;;;;;;9.82;6.55;;;21.40;66.00;;;;;;5040822;28;20266;-64
2022/06/24 07:03:57;;;;;;;11.38;6.72;;;21.40;66.00;;;;;;5043870;28;20033;-64
2022/06/24 07:06:24;;;;;;;10.27;6.10;;;21.40;65.90;;;;;;5045304;28;20029;-64
2022/06/24 07:08:49;;;;;;;10.20;5.63;;;21.40;65.90;;;;;;5044130;28;20071;-64
2022/06/24 07:11:15;;;;;;;13.38;6.50;;;21.50;66.10;;;;;;5041114;28;20061;-64
2022/06/24 07:13:41;;;;;;;11.25;6.30;;;21.50;65.90;;;;;;5043273;28;20501;-64
2022/06/24 07:16:10;;;;;;;10.63;5.90;;;21.50;65.90;;;;;;5042866;28;20501;-64
2022/06/24 07:18:36;;;;;;;9.20;5.80;;;21.50;65.90;;;;;;5042866;28;20037;-64
2022/06/24 07:21:01;;;;;;;8.60;5.13;;;21.50;65.90;;;;;;5042573;28;20040;-64
2022/06/24 07:23:27;;;;;;;10.98;5.63;;;21.50;65.90;;;;;;5044983;28;20497;-64
2022/06/24 07:25:56;;;;;;;10.65;5.80;;;21.50;65.90;;;;;;5046802;28;20097;-64
2022/06/24 07:28:21;;;;;;;10.85;5.57;;;21.50;65.90;;;;;;5042752;28;20413;-64
2022/06/24 07:30:47;;;;;;;8.60;4.90;;;21.50;65.90;;;;;;5048181;28;20025;-64
2022/06/24 07:33:13;;;;;;;8.98;5.10;;;21.50;65.90;;;;;;5048492;28;20098;-64
2022/06/24 07:35:38;;;;;;;14.38;5.60;;;21.50;65.90;;;;;;5045450;28;20056;-65
2022/06/24 07:38:04;;;;;;;9.15;5.07;;;21.50;65.80;;;;;;5046073;28;20436;-64
2022/06/24 07:40:30;;;;;;;11.15;5.65;;;21.50;65.90;;;;;;5045486;28;20028;-64
2022/06/24 07:42:55;;;;;;;9.88;5.28;;;21.60;66.00;;;;;;5047539;28;20408;-65
2022/06/24 07:45:21;;;;;;;11.95;5.25;;;21.60;66.10;;;;;;5048862;28;20611;-64
2022/06/24 07:47:47;;;;;;;9.45;5.43;;;21.60;66.10;;;;;;5048593;28;20477;-64
2022/06/24 07:50:13;;;;;;;9.50;4.95;;;21.50;66.10;;;;;;5046803;28;20028;-65
2022/06/24 07:52:38;;;;;;;10.77;4.68;;;21.50;66.20;;;;;;5047109;28;20035;-64
2022/06/24 07:57:49;;;;;;;12.05;5.10;;;21.60;66.20;;;;;;5047996;28;20095;-64
2022/06/24 08:00:15;;;;;;;12.13;5.13;;;21.60;66.30;;;;;;5049300;28;20497;-64
2022/06/24 08:02:40;;;;;;;13.27;5.30;;;21.50;66.10;;;;;;5048009;28;20036;-64
2022/06/24 08:05:06;;;;;;;9.93;5.03;;;21.50;66.20;;;;;;5048276;28;20029;-64
2022/06/24 08:07:32;;;;;;;12.55;5.47;;;21.60;66.30;;;;;;5046569;28;20232;-64
2022/06/24 08:09:57;;;;;;;9.13;5.03;;;21.60;66.20;;;;;;5047160;28;20029;-64
2022/06/24 08:12:23;;;;;;;9.07;4.93;;;21.60;66.20;;;;;;5049598;28;20108;-64
2022/06/24 08:14:49;;;;;;;11.30;5.45;;;21.60;66.10;;;;;;5047418;28;20036;-64
2022/06/24 08:17:14;;;;;;;10.43;5.32;;;21.60;66.10;;;;;;5046888;28;21124;-64
2022/06/24 08:19:40;;;;;;;8.48;4.75;;;21.60;66.00;;;;;;5048017;28;20079;-64
2022/06/24 08:22:06;;;;;;;10.50;5.30;;;21.60;65.90;;;;;;5047194;28;20078;-64
2022/06/24 08:24:32;;;;;;;9.35;4.88;;;21.60;65.90;;;;;;5048718;28;20714;-64
2022/06/24 08:26:57;;;;;;;12.50;5.63;;;21.70;66.00;;;;;;5047064;28;20033;-64
2022/06/24 08:29:23;;;;;;;11.18;5.35;;;21.70;66.00;;;;;;5047686;28;20029;-64
2022/06/24 08:31:48;;;;;;;9.55;4.95;;;21.70;67.10;;;;;;5046240;28;20036;-65
2022/06/24 08:34:15;;;;;;;10.80;4.78;;;21.70;66.30;;;;;;5046993;28;20033;-64
2022/06/24 08:36:40;;;;;;;11.13;5.10;;;21.70;66.30;;;;;;5048553;28;20043;-65
2022/06/24 08:39:06;;;;;;;8.88;4.60;;;21.60;66.00;;;;;;5046805;28;20032;-64
2022/06/24 08:41:32;;;;;;;8.88;5.25;;;21.70;67.40;;;;;;5047047;28;20542;-64
2022/06/24 08:43:58;;;;;;;10.65;5.13;;;21.70;66.20;;;;;;5045569;28;20036;-64
2022/06/24 08:46:25;;;;;;;10.30;5.10;;;21.70;66.30;;;;;;5043718;28;20033;-64
2022/06/24 08:48:51;;;;;;;10.10;4.80;;;21.70;66.20;;;;;;5045228;28;20025;-65
2022/06/24 08:51:17;;;;;;;8.82;4.60;;;21.70;66.20;;;;;;5047337;28;20032;-64
2022/06/24 08:53:44;;;;;;;14.27;5.53;;;21.70;66.10;;;;;;5046496;28;20033;-64
2022/06/24 08:56:10;;;;;;;8.52;5.05;;;21.70;66.30;;;;;;5045516;28;20037;-65
2022/06/24 08:58:35;;;;;;;8.48;4.95;;;21.60;66.20;;;;;;5047606;28;20054;-64
2022/06/24 09:01:01;;;;;;;9.02;5.05;;;21.70;66.20;;;;;;5046242;28;20036;-64
2022/06/24 09:03:27;;;;;;;9.60;4.88;;;21.70;66.20;;;;;;5045666;28;20567;-64
2022/06/24 09:05:53;;;;;;;8.57;4.97;;;21.70;66.20;;;;;;5042389;28;20032;-64
2022/06/24 09:08:19;;;;;;;9.25;5.00;;;21.70;66.20;;;;;;5043169;28;20063;-64
2022/06/24 09:11:28;;;;;;;8.15;5.07;;;21.70;66.20;;;;;;5042717;28;20533;-64
2022/06/24 09:14:01;;;;;;;11.75;5.30;;;21.70;66.20;;;;;;5035777;28;20144;-64
2022/06/24 09:16:26;;;;;;;9.50;5.28;;;21.70;66.30;;;;;;5044724;28;20045;-63
2022/06/24 09:18:55;;;;;;;11.88;4.75;;;21.70;66.10;;;;;;5041761;28;20040;-64
2022/06/24 09:21:27;;;;;;;11.93;4.88;;;21.70;66.20;;;;;;5048252;28;20017;-65
2022/06/24 09:24:01;;;;;;;9.82;4.93;;;21.70;66.10;;;;;;5042906;28;20029;-64
2022/06/24 09:26:33;;;;;;;10.13;4.85;;;21.80;66.10;;;;;;5046228;28;20040;-64
2022/06/24 09:28:59;;;;;;;10.45;5.30;;;21.80;66.00;;;;;;5045547;28;20036;-66
2022/06/24 09:31:26;;;;;;;11.27;5.05;;;21.80;66.00;;;;;;5044648;28;20029;-66
2022/06/24 09:33:52;;;;;;;12.07;5.00;;;21.80;65.80;;;;;;5046027;28;20116;-65
2022/06/24 09:36:20;;;;;;;9.52;5.18;;;21.80;65.80;;;;;;5028990;28;20029;-66
2022/06/24 09:38:54;;;;;;;10.82;4.90;;;21.80;65.70;;;;;;5061587;28;20075;-64
2022/06/24 09:41:19;;;;;;;10.38;5.15;;;21.80;65.70;;;;;;5046048;28;20078;-64
2022/06/24 09:43:46;;;;;;;9.95;4.50;;;21.80;65.50;;;;;;5024693;28;20029;-64
2022/06/24 09:46:22;;;;;;;8.60;4.97;;;21.80;65.30;;;;;;5008791;28;20033;-64
2022/06/24 09:48:50;;;;;;;10.68;5.13;;;21.90;65.40;;;;;;5024780;28;20030;-64
2022/06/24 09:51:16;;;;;;;8.63;4.85;;;21.90;65.20;;;;;;5026834;28;20086;-63
2022/06/24 09:53:42;;;;;;;9.63;4.80;;;21.90;65.10;;;;;;5003961;28;20120;-63
2022/06/24 09:56:09;;;;;;;10.73;5.30;;;22.00;66.10;;;;;;5026187;28;20018;-65
2022/06/24 09:58:35;;;;;;;9.98;5.03;;;22.00;64.90;;;;;;5024295;28;20116;-64
2022/06/24 10:01:01;;;;;;;12.68;5.18;;;22.00;64.80;;;;;;5024417;28;20124;-68
2022/06/24 10:03:27;;;;;;;10.85;5.07;;;22.00;65.10;;;;;;5026784;28;20168;-67
2022/06/24 10:05:53;;;;;;;12.13;5.00;;;22.00;64.90;;;;;;5025160;28;20489;-66
2022/06/24 10:08:22;;;;;;;8.50;4.93;;;22.00;65.00;;;;;;5025779;28;20410;-64
2022/06/24 10:10:51;;;;;;;10.48;5.05;;;22.00;64.90;;;;;;5025786;28;20652;-64
2022/06/24 10:13:34;;;;;;;10.68;4.90;;;22.00;64.70;;;;;;5025331;28;20049;-64
2022/06/24 10:16:05;;;;;;;8.98;4.68;;;22.00;64.80;;;;;;5024267;28;20029;-64
2022/06/24 10:18:44;;;;;;;10.40;4.97;;;22.00;64.80;;;;;;5026153;28;20021;-64
2022/06/24 10:21:10;;;;;;;13.73;4.65;;;22.00;64.80;;;;;;5024211;28;20026;-65
2022/06/24 10:23:43;;;;;;;9.15;4.47;;;22.00;64.50;;;;;;5022501;28;20084;-65
2022/06/24 10:26:29;;;;;;;9.43;4.63;;;22.10;64.60;;;;;;5024960;28;20040;-64
2022/06/24 10:29:04;;;;;;;11.65;4.72;;;22.00;64.60;;;;;;5022093;28;20064;-63
2022/06/24 10:31:49;;;;;;;9.75;4.82;;;22.00;64.50;;;;;;5022796;28;20501;-63
2022/06/24 10:34:29;;;;;;;9.27;4.90;;;22.00;64.60;;;;;;5024155;28;20034;-64
2022/06/24 10:37:12;;;;;;;10.88;4.88;;;22.10;64.70;;;;;;5022916;28;20029;-67
2022/06/24 10:39:51;;;;;;;9.73;5.05;;;22.10;64.80;;;;;;5026580;28;20402;-65
2022/06/24 10:42:20;;;;;;;11.00;4.68;;;22.20;64.50;;;;;;5014281;28;20626;-65
2022/06/24 10:44:53;;;;;;;10.05;4.43;;;22.20;64.50;;;;;;5047769;28;20049;-66
2022/06/24 10:47:21;;;;;;;9.77;4.80;;;22.20;64.40;;;;;;5042414;28;20107;-65
2022/06/24 10:49:52;;;;;;;10.98;4.50;;;22.20;64.30;;;;;;5041167;28;20861;-65
2022/06/24 10:52:37;;;;;;;9.15;4.47;;;22.20;64.20;;;;;;5044142;28;20029;-65
2022/06/24 10:55:15;;;;;;;8.77;4.70;;;22.20;64.10;;;;;;5040353;28;20040;-65
2022/06/24 10:57:51;;;;;;;12.65;4.60;;;22.30;64.10;;;;;;5047376;28;20064;-67
2022/06/24 11:00:18;;;;;;;8.88;3.85;;;22.20;63.60;;;;;;5046387;28;20116;-69
2022/06/24 11:02:44;;;;;;;7.80;2.83;;;22.20;61.70;;;;;;5062070;28;20072;-68
2022/06/24 11:05:28;;;;;;;9.50;2.67;;;22.20;59.90;;;;;;5048842;28;20051;-67
2022/06/24 11:07:53;;;;;;;7.13;2.38;;;22.10;58.50;;;;;;5040534;28;20116;-67
2022/06/24 11:10:23;;;;;;;9.95;2.53;;;22.00;57.60;;;;;;5046223;28;20100;-66
2022/06/24 11:12:56;;;;;;;5.20;2.00;;;22.00;57.70;;;;;;5045688;28;20033;-66
2022/06/24 11:15:46;;;;;;;9.07;2.33;;;22.00;56.90;;;;;;5046978;28;20474;-65
2022/06/24 11:18:17;;;;;;;4.07;1.85;;;21.90;56.10;;;;;;5047803;28;20025;-65
2022/06/24 11:20:45;;;;;;;6.13;1.90;;;21.80;56.60;;;;;;5045491;28;21577;-68
2022/06/24 11:23:12;;;;;;;4.32;1.80;;;21.80;55.70;;;;;;5047063;28;20029;-68
2022/06/24 11:25:39;;;;;;;5.18;1.80;;;21.80;56.60;;;;;;5045872;28;20029;-67
2022/06/24 11:28:05;;;;;;;5.65;1.80;;;21.80;55.80;;;;;;5046992;28;20033;-66
2022/06/24 11:30:31;;;;;;;8.18;1.67;;;21.80;56.20;;;;;;5046853;28;20028;-66
2022/06/24 11:33:01;;;;;;;4.90;1.58;;;21.80;56.20;;;;;;5047767;28;20040;-66
2022/06/24 11:35:27;;;;;;;6.80;1.50;;;21.80;55.90;;;;;;5044588;28;20088;-67
2022/06/24 11:37:56;;;;;;;5.90;1.50;;;21.80;55.80;;;;;;5048513;28;20044;-68
2022/06/24 11:40:23;;;;;;;7.18;1.88;;;21.80;55.90;;;;;;5048301;28;20481;-67
2022/06/24 11:42:50;;;;;;;5.25;1.40;;;21.90;56.20;;;;;;5048256;28;21192;-67
2022/06/24 11:45:15;;;;;;;5.32;1.48;;;21.90;56.30;;;;;;5046308;28;20401;-68
2022/06/24 11:47:45;;;;;;;5.93;1.40;;;21.90;56.20;;;;;;5060553;28;20025;-65
2022/06/24 11:50:18;;;;;;;5.20;1.30;;;21.90;56.60;;;;;;5059465;28;20036;-65
2022/06/24 11:52:45;;;;;;;5.05;1.58;;;21.90;56.90;;;;;;5045780;28;20037;-65
2022/06/24 11:55:27;;;;;;;4.85;1.40;;;22.00;57.30;;;;;;5046981;28;20021;-65
2022/06/24 11:57:55;;;;;;;6.28;1.80;;;22.00;57.10;;;;;;5045479;28;20025;-65
2022/06/24 12:00:22;;;;;;;9.90;1.70;;;22.10;57.50;;;;;;5045357;28;20029;-65
2022/06/24 12:02:47;;;;;;;5.53;1.60;;;22.10;57.50;;;;;;5047140;28;20037;-65
2022/06/24 12:05:13;;;;;;;6.50;1.75;;;22.10;57.80;;;;;;5047574;28;20040;-65
2022/06/24 12:07:39;;;;;;;8.70;1.75;;;22.20;57.80;;;;;;5047568;28;20033;-64
2022/06/24 12:10:06;;;;;;;4.38;1.60;;;22.20;57.60;;;;;;5044889;28;20037;-65
2022/06/24 12:12:32;;;;;;;9.20;1.73;;;22.30;57.80;;;;;;5048188;28;20595;-65
2022/06/24 12:14:58;;;;;;;7.22;1.55;;;22.30;57.80;;;;;;5063460;28;20116;-65
2022/06/24 12:17:24;;;;;;;3.30;1.60;;;22.30;57.90;;;;;;5047522;28;20025;-65
2022/06/24 12:19:56;;;;;;;6.75;1.60;;;22.30;58.20;;;;;;5047782;28;20414;-65
2022/06/24 12:22:22;;;;;;;7.15;1.80;;;22.30;58.10;;;;;;5048418;28;20055;-65
2022/06/24 12:24:48;;;;;;;5.20;1.52;;;22.40;58.40;;;;;;5048704;28;20497;-65
2022/06/24 12:27:14;;;;;;;4.53;1.60;;;22.40;58.40;;;;;;5063117;28;20036;-65
2022/06/24 12:29:41;;;;;;;6.22;1.60;;;22.40;58.50;;;;;;5046947;28;20035;-65
2022/06/24 12:32:07;;;;;;;6.30;1.77;;;22.40;58.50;;;;;;5045077;28;20834;-65
2022/06/24 12:34:40;;;;;;;5.63;1.60;;;22.50;58.60;;;;;;5043504;28;20045;-65
2022/06/24 12:37:10;;;;;;;6.55;1.67;;;22.50;58.80;;;;;;5046529;28;20813;-65
2022/06/24 12:39:37;;;;;;;4.20;1.58;;;22.50;58.80;;;;;;5048079;28;20041;-65
2022/06/24 12:42:04;;;;;;;5.13;1.60;;;22.50;58.90;;;;;;5044459;28;20079;-65
2022/06/24 12:44:41;;;;;;;2.65;1.67;;;22.40;58.90;;;;;;5037676;28;20452;-65
2022/06/24 12:52:38;;;;;;;3.75;1.67;;;22.50;59.20;;;;;;5027598;28;20095;-65
2022/06/24 12:55:05;;;;;;;5.47;1.70;;;22.50;59.20;;;;;;5027541;28;20030;-65
2022/06/24 12:57:31;;;;;;;3.92;1.90;;;22.50;59.20;;;;;;5027952;28;20026;-65
2022/06/24 12:59:57;;;;;;;7.32;1.80;;;22.50;59.30;;;;;;5027127;28;20032;-65